sensor_id;sensor_type;location;lat;lon;timestamp;P1;durP1;ratioP1;P2;durP2;ratioP2
53391;SDS011;41667;51.922;8.850;2023-06-22T00:01:03;6.47;;;4.85;;
53391;SDS011;41667;51.922;8.850;2023-06-22T00:03:28;6.30;;;4.88;;
53391;SDS011;41667;51.922;8.850;2023-06-22T00:05:53;7.27;;;4.90;;
53391;SDS011;41667;51.922;8.850;2023-06-22T00:08:19;5.47;;;4.53;;
53391;SDS011;41667;51.922;8.850;2023-06-22T00:10:44;7.78;;;4.45;;
53391;SDS011;41667;51.922;8.850;2023-06-22T00:13:09;5.95;;;5.03;;
53391;SDS011;41667;51.922;8.850;2023-06-22T00:15:35;9.00;;;5.40;;
53391;SDS011;41667;51.922;8.850;2023-06-22T00:18:01;9.77;;;5.85;;
53391;SDS011;41667;51.922;8.850;2023-06-22T00:20:27;7.18;;;5.40;;
53391;SDS011;41667;51.922;8.850;2023-06-22T00:22:55;5.03;;;4.53;;
53391;SDS011;41667;51.922;8.850;2023-06-22T00:25:21;8.70;;;5.30;;
53391;SDS011;41667;51.922;8.850;2023-06-22T00:27:46;7.60;;;5.43;;
53391;SDS011;41667;51.922;8.850;2023-06-22T00:30:11;5.53;;;4.75;;
53391;SDS011;41667;51.922;8.850;2023-06-22T00:32:37;6.03;;;5.22;;
53391;SDS011;41667;51.922;8.850;2023-06-22T00:35:02;7.55;;;5.40;;
53391;SDS011;41667;51.922;8.850;2023-06-22T00:37:27;8.60;;;6.00;;
53391;SDS011;41667;51.922;8.850;2023-06-22T00:39:54;7.60;;;4.95;;
53391;SDS011;41667;51.922;8.850;2023-06-22T00:42:20;8.32;;;5.07;;
53391;SDS011;41667;51.922;8.850;2023-06-22T00:44:45;6.38;;;4.68;;
53391;SDS011;41667;51.922;8.850;2023-06-22T00:47:10;7.10;;;5.38;;
53391;SDS011;41667;51.922;8.850;2023-06-22T00:49:37;6.82;;;5.25;;
53391;SDS011;41667;51.922;8.850;2023-06-22T00:52:03;7.53;;;5.50;;
53391;SDS011;41667;51.922;8.850;2023-06-22T00:54:33;6.80;;;5.13;;
53391;SDS011;41667;51.922;8.850;2023-06-22T00:56:59;7.68;;;5.25;;
53391;SDS011;41667;51.922;8.850;2023-06-22T00:59:25;9.13;;;5.68;;
53391;SDS011;41667;51.922;8.850;2023-06-22T01:01:51;6.07;;;5.13;;
53391;SDS011;41667;51.922;8.850;2023-06-22T01:04:16;7.47;;;5.53;;
53391;SDS011;41667;51.922;8.850;2023-06-22T01:06:45;8.77;;;5.30;;
53391;SDS011;41667;51.922;8.850;2023-06-22T01:09:15;7.95;;;6.22;;
53391;SDS011;41667;51.922;8.850;2023-06-22T01:11:50;6.97;;;5.90;;
53391;SDS011;41667;51.922;8.850;2023-06-22T01:14:20;5.68;;;5.15;;
53391;SDS011;41667;51.922;8.850;2023-06-22T01:16:46;6.53;;;5.35;;
53391;SDS011;41667;51.922;8.850;2023-06-22T01:21:44;7.95;;;5.85;;
53391;SDS011;41667;51.922;8.850;2023-06-22T01:24:23;6.90;;;5.93;;
53391;SDS011;41667;51.922;8.850;2023-06-22T01:27:01;7.25;;;5.63;;
53391;SDS011;41667;51.922;8.850;2023-06-22T01:29:30;8.45;;;5.22;;
53391;SDS011;41667;51.922;8.850;2023-06-22T01:31:56;6.95;;;5.47;;
53391;SDS011;41667;51.922;8.850;2023-06-22T01:34:22;8.10;;;5.10;;
53391;SDS011;41667;51.922;8.850;2023-06-22T01:36:48;8.02;;;6.05;;
53391;SDS011;41667;51.922;8.850;2023-06-22T01:39:14;5.68;;;5.07;;
53391;SDS011;41667;51.922;8.850;2023-06-22T01:41:39;6.82;;;5.55;;
53391;SDS011;41667;51.922;8.850;2023-06-22T01:44:07;7.80;;;5.53;;
53391;SDS011;41667;51.922;8.850;2023-06-22T01:46:33;6.22;;;5.50;;
53391;SDS011;41667;51.922;8.850;2023-06-22T01:48:59;5.90;;;5.15;;
53391;SDS011;41667;51.922;8.850;2023-06-22T01:51:24;8.75;;;5.75;;
53391;SDS011;41667;51.922;8.850;2023-06-22T01:53:49;8.40;;;5.55;;
53391;SDS011;41667;51.922;8.850;2023-06-22T01:56:16;5.83;;;5.10;;
53391;SDS011;41667;51.922;8.850;2023-06-22T01:58:47;5.40;;;4.88;;
53391;SDS011;41667;51.922;8.850;2023-06-22T02:01:13;6.93;;;5.47;;
53391;SDS011;41667;51.922;8.850;2023-06-22T02:03:43;6.53;;;5.35;;
53391;SDS011;41667;51.922;8.850;2023-06-22T02:06:21;7.45;;;4.55;;
53391;SDS011;41667;51.922;8.850;2023-06-22T02:08:49;7.63;;;5.20;;
53391;SDS011;41667;51.922;8.850;2023-06-22T02:11:16;6.70;;;5.53;;
53391;SDS011;41667;51.922;8.850;2023-06-22T02:13:43;5.72;;;4.60;;
53391;SDS011;41667;51.922;8.850;2023-06-22T02:16:10;8.15;;;5.90;;
53391;SDS011;41667;51.922;8.850;2023-06-22T02:18:36;7.57;;;5.97;;
53391;SDS011;41667;51.922;8.850;2023-06-22T02:21:01;10.85;;;5.53;;
53391;SDS011;41667;51.922;8.850;2023-06-22T02:23:27;10.13;;;5.40;;
53391;SDS011;41667;51.922;8.850;2023-06-22T02:25:52;6.57;;;5.53;;
53391;SDS011;41667;51.922;8.850;2023-06-22T02:28:17;7.70;;;5.70;;
53391;SDS011;41667;51.922;8.850;2023-06-22T02:30:42;9.13;;;5.97;;
53391;SDS011;41667;51.922;8.850;2023-06-22T02:33:07;7.57;;;6.00;;
53391;SDS011;41667;51.922;8.850;2023-06-22T02:35:32;7.07;;;5.17;;
53391;SDS011;41667;51.922;8.850;2023-06-22T02:38:00;7.63;;;6.10;;
53391;SDS011;41667;51.922;8.850;2023-06-22T02:40:26;9.60;;;5.72;;
53391;SDS011;41667;51.922;8.850;2023-06-22T02:42:52;7.38;;;5.78;;
53391;SDS011;41667;51.922;8.850;2023-06-22T02:45:17;8.20;;;6.60;;
53391;SDS011;41667;51.922;8.850;2023-06-22T02:47:42;7.10;;;5.75;;
53391;SDS011;41667;51.922;8.850;2023-06-22T02:50:07;6.37;;;5.70;;
53391;SDS011;41667;51.922;8.850;2023-06-22T02:52:32;7.72;;;5.93;;
53391;SDS011;41667;51.922;8.850;2023-06-22T02:54:58;7.63;;;5.40;;
53391;SDS011;41667;51.922;8.850;2023-06-22T02:57:24;9.35;;;6.03;;
53391;SDS011;41667;51.922;8.850;2023-06-22T02:59:49;9.50;;;5.97;;
53391;SDS011;41667;51.922;8.850;2023-06-22T03:02:14;8.95;;;5.93;;
53391;SDS011;41667;51.922;8.850;2023-06-22T03:04:39;9.73;;;5.87;;
53391;SDS011;41667;51.922;8.850;2023-06-22T03:07:04;6.80;;;5.67;;
53391;SDS011;41667;51.922;8.850;2023-06-22T03:09:30;9.73;;;5.55;;
53391;SDS011;41667;51.922;8.850;2023-06-22T03:11:55;6.53;;;5.50;;
53391;SDS011;41667;51.922;8.850;2023-06-22T03:14:20;6.17;;;5.43;;
53391;SDS011;41667;51.922;8.850;2023-06-22T03:16:45;7.60;;;5.80;;
53391;SDS011;41667;51.922;8.850;2023-06-22T03:19:10;8.33;;;5.93;;
53391;SDS011;41667;51.922;8.850;2023-06-22T03:21:36;10.00;;;6.45;;
53391;SDS011;41667;51.922;8.850;2023-06-22T03:24:03;9.18;;;5.15;;
53391;SDS011;41667;51.922;8.850;2023-06-22T03:26:28;6.50;;;5.30;;
53391;SDS011;41667;51.922;8.850;2023-06-22T03:28:54;6.05;;;5.28;;
53391;SDS011;41667;51.922;8.850;2023-06-22T03:31:20;6.30;;;5.68;;
53391;SDS011;41667;51.922;8.850;2023-06-22T03:33:46;11.00;;;5.88;;
53391;SDS011;41667;51.922;8.850;2023-06-22T03:36:11;6.07;;;5.30;;
53391;SDS011;41667;51.922;8.850;2023-06-22T03:38:36;7.57;;;5.40;;
53391;SDS011;41667;51.922;8.850;2023-06-22T03:41:02;7.97;;;6.33;;
53391;SDS011;41667;51.922;8.850;2023-06-22T03:43:27;7.53;;;5.78;;
53391;SDS011;41667;51.922;8.850;2023-06-22T03:45:52;8.50;;;5.97;;
53391;SDS011;41667;51.922;8.850;2023-06-22T03:48:17;8.40;;;5.65;;
53391;SDS011;41667;51.922;8.850;2023-06-22T03:50:42;7.22;;;5.95;;
53391;SDS011;41667;51.922;8.850;2023-06-22T03:53:09;6.00;;;5.18;;
53391;SDS011;41667;51.922;8.850;2023-06-22T03:55:34;8.23;;;5.73;;
53391;SDS011;41667;51.922;8.850;2023-06-22T03:57:59;8.17;;;5.57;;
53391;SDS011;41667;51.922;8.850;2023-06-22T04:00:30;7.70;;;6.43;;
53391;SDS011;41667;51.922;8.850;2023-06-22T04:02:55;10.90;;;5.85;;
53391;SDS011;41667;51.922;8.850;2023-06-22T04:05:20;9.25;;;6.60;;
53391;SDS011;41667;51.922;8.850;2023-06-22T04:07:45;6.63;;;5.65;;
53391;SDS011;41667;51.922;8.850;2023-06-22T04:10:11;8.70;;;6.80;;
53391;SDS011;41667;51.922;8.850;2023-06-22T04:12:36;8.55;;;6.25;;
53391;SDS011;41667;51.922;8.850;2023-06-22T04:15:01;6.97;;;6.00;;
53391;SDS011;41667;51.922;8.850;2023-06-22T04:17:26;8.10;;;6.32;;
53391;SDS011;41667;51.922;8.850;2023-06-22T04:19:51;8.83;;;6.00;;
53391;SDS011;41667;51.922;8.850;2023-06-22T04:22:17;7.03;;;5.40;;
53391;SDS011;41667;51.922;8.850;2023-06-22T04:24:42;9.23;;;6.17;;
53391;SDS011;41667;51.922;8.850;2023-06-22T04:27:07;8.77;;;7.10;;
53391;SDS011;41667;51.922;8.850;2023-06-22T04:29:32;7.23;;;6.13;;
53391;SDS011;41667;51.922;8.850;2023-06-22T04:31:58;10.75;;;6.20;;
53391;SDS011;41667;51.922;8.850;2023-06-22T04:34:27;9.00;;;5.53;;
53391;SDS011;41667;51.922;8.850;2023-06-22T04:36:52;9.27;;;7.45;;
53391;SDS011;41667;51.922;8.850;2023-06-22T04:39:18;12.13;;;8.90;;
53391;SDS011;41667;51.922;8.850;2023-06-22T04:41:43;16.63;;;9.18;;
53391;SDS011;41667;51.922;8.850;2023-06-22T04:44:09;13.43;;;8.73;;
53391;SDS011;41667;51.922;8.850;2023-06-22T04:46:34;12.43;;;9.15;;
53391;SDS011;41667;51.922;8.850;2023-06-22T04:49:08;13.02;;;8.73;;
53391;SDS011;41667;51.922;8.850;2023-06-22T04:51:40;14.02;;;8.15;;
53391;SDS011;41667;51.922;8.850;2023-06-22T04:54:05;10.95;;;8.13;;
53391;SDS011;41667;51.922;8.850;2023-06-22T04:56:31;12.82;;;7.97;;
53391;SDS011;41667;51.922;8.850;2023-06-22T04:58:56;11.13;;;7.72;;
53391;SDS011;41667;51.922;8.850;2023-06-22T05:01:22;10.13;;;7.65;;
53391;SDS011;41667;51.922;8.850;2023-06-22T05:03:47;12.40;;;8.02;;
53391;SDS011;41667;51.922;8.850;2023-06-22T05:06:12;10.40;;;7.45;;
53391;SDS011;41667;51.922;8.850;2023-06-22T05:08:39;9.43;;;6.80;;
53391;SDS011;41667;51.922;8.850;2023-06-22T05:11:04;9.20;;;6.75;;
53391;SDS011;41667;51.922;8.850;2023-06-22T05:13:30;9.45;;;6.63;;
53391;SDS011;41667;51.922;8.850;2023-06-22T05:15:55;9.13;;;7.33;;
53391;SDS011;41667;51.922;8.850;2023-06-22T05:18:25;12.00;;;6.97;;
53391;SDS011;41667;51.922;8.850;2023-06-22T05:20:51;8.88;;;7.03;;
53391;SDS011;41667;51.922;8.850;2023-06-22T05:23:16;12.88;;;7.95;;
53391;SDS011;41667;51.922;8.850;2023-06-22T05:25:41;10.48;;;7.57;;
53391;SDS011;41667;51.922;8.850;2023-06-22T05:28:06;10.75;;;7.25;;
53391;SDS011;41667;51.922;8.850;2023-06-22T05:30:36;8.38;;;6.70;;
53391;SDS011;41667;51.922;8.850;2023-06-22T05:33:01;8.98;;;6.50;;
53391;SDS011;41667;51.922;8.850;2023-06-22T05:35:26;11.10;;;7.82;;
53391;SDS011;41667;51.922;8.850;2023-06-22T05:37:51;10.05;;;7.78;;
53391;SDS011;41667;51.922;8.850;2023-06-22T05:40:17;9.77;;;7.43;;
53391;SDS011;41667;51.922;8.850;2023-06-22T05:42:42;10.30;;;6.90;;
53391;SDS011;41667;51.922;8.850;2023-06-22T05:45:07;10.70;;;7.10;;
53391;SDS011;41667;51.922;8.850;2023-06-22T05:47:32;10.35;;;7.18;;
53391;SDS011;41667;51.922;8.850;2023-06-22T05:49:57;8.98;;;7.03;;
53391;SDS011;41667;51.922;8.850;2023-06-22T05:52:23;11.60;;;7.15;;
53391;SDS011;41667;51.922;8.850;2023-06-22T05:54:48;12.35;;;6.80;;
53391;SDS011;41667;51.922;8.850;2023-06-22T05:57:13;8.25;;;6.60;;
53391;SDS011;41667;51.922;8.850;2023-06-22T05:59:38;10.25;;;7.03;;
53391;SDS011;41667;51.922;8.850;2023-06-22T06:02:04;8.75;;;7.03;;
53391;SDS011;41667;51.922;8.850;2023-06-22T06:04:29;12.13;;;7.82;;
53391;SDS011;41667;51.922;8.850;2023-06-22T06:06:55;9.13;;;7.00;;
53391;SDS011;41667;51.922;8.850;2023-06-22T06:09:20;7.90;;;6.35;;
53391;SDS011;41667;51.922;8.850;2023-06-22T06:11:45;7.97;;;6.07;;
53391;SDS011;41667;51.922;8.850;2023-06-22T06:14:10;9.40;;;6.03;;
53391;SDS011;41667;51.922;8.850;2023-06-22T06:16:35;12.07;;;7.20;;
53391;SDS011;41667;51.922;8.850;2023-06-22T06:19:00;9.97;;;7.40;;
53391;SDS011;41667;51.922;8.850;2023-06-22T06:21:26;11.33;;;7.13;;
53391;SDS011;41667;51.922;8.850;2023-06-22T06:23:51;11.47;;;7.90;;
53391;SDS011;41667;51.922;8.850;2023-06-22T06:26:16;8.90;;;7.72;;
53391;SDS011;41667;51.922;8.850;2023-06-22T06:28:42;13.13;;;6.68;;
53391;SDS011;41667;51.922;8.850;2023-06-22T06:31:08;11.32;;;7.47;;
53391;SDS011;41667;51.922;8.850;2023-06-22T06:33:33;9.40;;;7.57;;
53391;SDS011;41667;51.922;8.850;2023-06-22T06:35:59;11.63;;;7.70;;
53391;SDS011;41667;51.922;8.850;2023-06-22T06:38:26;10.07;;;7.85;;
53391;SDS011;41667;51.922;8.850;2023-06-22T06:40:51;10.13;;;7.28;;
53391;SDS011;41667;51.922;8.850;2023-06-22T06:43:17;10.05;;;8.15;;
53391;SDS011;41667;51.922;8.850;2023-06-22T06:45:42;11.70;;;9.00;;
53391;SDS011;41667;51.922;8.850;2023-06-22T06:48:07;8.63;;;7.57;;
53391;SDS011;41667;51.922;8.850;2023-06-22T06:50:32;12.30;;;8.60;;
53391;SDS011;41667;51.922;8.850;2023-06-22T06:52:57;9.03;;;7.90;;
53391;SDS011;41667;51.922;8.850;2023-06-22T06:55:24;10.80;;;8.45;;
53391;SDS011;41667;51.922;8.850;2023-06-22T06:57:50;10.82;;;8.60;;
53391;SDS011;41667;51.922;8.850;2023-06-22T07:00:16;10.13;;;7.50;;
53391;SDS011;41667;51.922;8.850;2023-06-22T07:02:42;11.85;;;8.52;;
53391;SDS011;41667;51.922;8.850;2023-06-22T07:05:07;8.77;;;7.03;;
53391;SDS011;41667;51.922;8.850;2023-06-22T07:07:33;10.85;;;8.32;;
53391;SDS011;41667;51.922;8.850;2023-06-22T07:09:58;10.25;;;8.10;;
53391;SDS011;41667;51.922;8.850;2023-06-22T07:12:23;9.10;;;7.80;;
53391;SDS011;41667;51.922;8.850;2023-06-22T07:14:48;10.27;;;8.27;;
53391;SDS011;41667;51.922;8.850;2023-06-22T07:17:14;10.18;;;8.10;;
53391;SDS011;41667;51.922;8.850;2023-06-22T07:19:39;10.02;;;8.02;;
53391;SDS011;41667;51.922;8.850;2023-06-22T07:22:04;12.90;;;8.50;;
53391;SDS011;41667;51.922;8.850;2023-06-22T07:24:29;10.40;;;8.17;;
53391;SDS011;41667;51.922;8.850;2023-06-22T07:26:56;13.57;;;9.10;;
53391;SDS011;41667;51.922;8.850;2023-06-22T07:29:24;11.50;;;9.90;;
53391;SDS011;41667;51.922;8.850;2023-06-22T07:31:49;11.77;;;8.25;;
53391;SDS011;41667;51.922;8.850;2023-06-22T07:34:15;10.38;;;8.98;;
53391;SDS011;41667;51.922;8.850;2023-06-22T07:36:40;12.68;;;8.48;;
53391;SDS011;41667;51.922;8.850;2023-06-22T07:39:05;9.75;;;8.43;;
53391;SDS011;41667;51.922;8.850;2023-06-22T07:41:30;12.70;;;8.40;;
53391;SDS011;41667;51.922;8.850;2023-06-22T07:43:56;11.07;;;8.15;;
53391;SDS011;41667;51.922;8.850;2023-06-22T07:46:21;12.80;;;9.50;;
53391;SDS011;41667;51.922;8.850;2023-06-22T07:48:46;10.00;;;8.50;;
53391;SDS011;41667;51.922;8.850;2023-06-22T07:51:11;12.35;;;9.38;;
53391;SDS011;41667;51.922;8.850;2023-06-22T07:53:40;14.05;;;10.50;;
53391;SDS011;41667;51.922;8.850;2023-06-22T07:56:06;9.88;;;8.52;;
53391;SDS011;41667;51.922;8.850;2023-06-22T07:58:32;11.80;;;9.70;;
53391;SDS011;41667;51.922;8.850;2023-06-22T08:00:57;11.00;;;8.80;;
53391;SDS011;41667;51.922;8.850;2023-06-22T08:03:22;13.20;;;10.53;;
53391;SDS011;41667;51.922;8.850;2023-06-22T08:05:47;12.32;;;10.52;;
53391;SDS011;41667;51.922;8.850;2023-06-22T08:08:13;16.17;;;11.63;;
53391;SDS011;41667;51.922;8.850;2023-06-22T08:10:39;14.65;;;11.65;;
53391;SDS011;41667;51.922;8.850;2023-06-22T08:13:04;12.70;;;10.73;;
53391;SDS011;41667;51.922;8.850;2023-06-22T08:15:30;12.98;;;10.88;;
53391;SDS011;41667;51.922;8.850;2023-06-22T08:17:55;15.75;;;11.27;;
53391;SDS011;41667;51.922;8.850;2023-06-22T08:20:20;19.15;;;12.00;;
53391;SDS011;41667;51.922;8.850;2023-06-22T08:22:45;14.38;;;10.77;;
53391;SDS011;41667;51.922;8.850;2023-06-22T08:25:10;15.37;;;10.83;;
53391;SDS011;41667;51.922;8.850;2023-06-22T08:27:36;15.20;;;11.93;;
53391;SDS011;41667;51.922;8.850;2023-06-22T08:30:01;13.63;;;11.07;;
53391;SDS011;41667;51.922;8.850;2023-06-22T08:32:27;18.48;;;11.77;;
53391;SDS011;41667;51.922;8.850;2023-06-22T08:34:56;14.13;;;11.40;;
53391;SDS011;41667;51.922;8.850;2023-06-22T08:37:21;18.95;;;11.93;;
53391;SDS011;41667;51.922;8.850;2023-06-22T08:39:55;16.60;;;12.60;;
53391;SDS011;41667;51.922;8.850;2023-06-22T08:42:20;17.52;;;12.30;;
53391;SDS011;41667;51.922;8.850;2023-06-22T08:44:45;15.45;;;11.88;;
53391;SDS011;41667;51.922;8.850;2023-06-22T08:47:10;16.05;;;11.75;;
53391;SDS011;41667;51.922;8.850;2023-06-22T08:49:35;13.20;;;11.30;;
53391;SDS011;41667;51.922;8.850;2023-06-22T08:52:01;14.05;;;11.23;;
53391;SDS011;41667;51.922;8.850;2023-06-22T08:54:26;15.00;;;10.98;;
53391;SDS011;41667;51.922;8.850;2023-06-22T08:56:51;13.73;;;11.68;;
53391;SDS011;41667;51.922;8.850;2023-06-22T08:59:16;16.27;;;11.25;;
53391;SDS011;41667;51.922;8.850;2023-06-22T09:01:41;13.57;;;11.10;;
53391;SDS011;41667;51.922;8.850;2023-06-22T09:04:10;13.13;;;11.02;;
53391;SDS011;41667;51.922;8.850;2023-06-22T09:06:36;14.93;;;11.52;;
53391;SDS011;41667;51.922;8.850;2023-06-22T09:09:06;17.50;;;10.43;;
53391;SDS011;41667;51.922;8.850;2023-06-22T09:11:31;17.33;;;10.48;;
53391;SDS011;41667;51.922;8.850;2023-06-22T09:13:56;13.52;;;10.75;;
53391;SDS011;41667;51.922;8.850;2023-06-22T09:16:21;13.32;;;10.07;;
53391;SDS011;41667;51.922;8.850;2023-06-22T09:18:47;17.67;;;9.85;;
53391;SDS011;41667;51.922;8.850;2023-06-22T09:21:12;11.48;;;9.32;;
53391;SDS011;41667;51.922;8.850;2023-06-22T09:23:37;11.87;;;10.13;;
53391;SDS011;41667;51.922;8.850;2023-06-22T09:26:02;14.43;;;9.38;;
53391;SDS011;41667;51.922;8.850;2023-06-22T09:28:29;16.42;;;8.65;;
53391;SDS011;41667;51.922;8.850;2023-06-22T09:30:54;14.65;;;9.57;;
53391;SDS011;41667;51.922;8.850;2023-06-22T09:33:24;9.73;;;8.63;;
53391;SDS011;41667;51.922;8.850;2023-06-22T09:35:50;11.20;;;8.52;;
53391;SDS011;41667;51.922;8.850;2023-06-22T09:38:16;13.13;;;8.10;;
53391;SDS011;41667;51.922;8.850;2023-06-22T09:40:41;9.90;;;8.07;;
53391;SDS011;41667;51.922;8.850;2023-06-22T09:43:06;8.02;;;7.20;;
53391;SDS011;41667;51.922;8.850;2023-06-22T09:45:31;10.30;;;8.20;;
53391;SDS011;41667;51.922;8.850;2023-06-22T09:47:56;9.80;;;8.80;;
53391;SDS011;41667;51.922;8.850;2023-06-22T09:50:21;9.50;;;8.23;;
53391;SDS011;41667;51.922;8.850;2023-06-22T09:52:46;8.13;;;6.65;;
53391;SDS011;41667;51.922;8.850;2023-06-22T09:55:15;10.77;;;7.47;;
53391;SDS011;41667;51.922;8.850;2023-06-22T09:57:41;10.38;;;8.07;;
53391;SDS011;41667;51.922;8.850;2023-06-22T10:00:06;9.73;;;7.67;;
53391;SDS011;41667;51.922;8.850;2023-06-22T10:02:34;9.02;;;8.07;;
53391;SDS011;41667;51.922;8.850;2023-06-22T10:04:59;8.18;;;7.32;;
53391;SDS011;41667;51.922;8.850;2023-06-22T10:07:24;9.55;;;7.80;;
53391;SDS011;41667;51.922;8.850;2023-06-22T10:09:49;8.27;;;7.47;;
53391;SDS011;41667;51.922;8.850;2023-06-22T10:12:14;9.52;;;8.23;;
53391;SDS011;41667;51.922;8.850;2023-06-22T10:14:39;8.27;;;7.47;;
53391;SDS011;41667;51.922;8.850;2023-06-22T10:17:05;9.97;;;6.70;;
53391;SDS011;41667;51.922;8.850;2023-06-22T10:19:32;8.45;;;6.95;;
53391;SDS011;41667;51.922;8.850;2023-06-22T10:21:57;8.52;;;6.97;;
53391;SDS011;41667;51.922;8.850;2023-06-22T10:24:22;8.73;;;7.53;;
53391;SDS011;41667;51.922;8.850;2023-06-22T10:26:47;8.20;;;6.68;;
53391;SDS011;41667;51.922;8.850;2023-06-22T10:29:12;8.77;;;6.43;;
53391;SDS011;41667;51.922;8.850;2023-06-22T10:31:37;8.48;;;6.45;;
53391;SDS011;41667;51.922;8.850;2023-06-22T10:34:02;8.32;;;5.80;;
53391;SDS011;41667;51.922;8.850;2023-06-22T10:36:28;7.07;;;6.18;;
53391;SDS011;41667;51.922;8.850;2023-06-22T10:38:53;7.00;;;6.03;;
53391;SDS011;41667;51.922;8.850;2023-06-22T10:41:20;7.93;;;6.20;;
53391;SDS011;41667;51.922;8.850;2023-06-22T10:43:45;7.73;;;6.83;;
53391;SDS011;41667;51.922;8.850;2023-06-22T10:46:11;7.78;;;6.18;;
53391;SDS011;41667;51.922;8.850;2023-06-22T10:48:36;7.75;;;6.03;;
53391;SDS011;41667;51.922;8.850;2023-06-22T10:51:01;7.72;;;6.50;;
53391;SDS011;41667;51.922;8.850;2023-06-22T10:53:26;8.75;;;6.95;;
53391;SDS011;41667;51.922;8.850;2023-06-22T10:55:52;6.80;;;5.95;;
53391;SDS011;41667;51.922;8.850;2023-06-22T10:58:18;8.90;;;6.20;;
53391;SDS011;41667;51.922;8.850;2023-06-22T11:00:44;6.32;;;5.68;;
53391;SDS011;41667;51.922;8.850;2023-06-22T11:03:09;6.13;;;5.13;;
53391;SDS011;41667;51.922;8.850;2023-06-22T11:05:34;6.68;;;5.53;;
53391;SDS011;41667;51.922;8.850;2023-06-22T11:07:59;6.63;;;5.93;;
53391;SDS011;41667;51.922;8.850;2023-06-22T11:10:24;5.97;;;5.37;;
53391;SDS011;41667;51.922;8.850;2023-06-22T11:12:49;8.70;;;5.55;;
53391;SDS011;41667;51.922;8.850;2023-06-22T11:15:14;7.72;;;5.80;;
53391;SDS011;41667;51.922;8.850;2023-06-22T11:17:40;7.07;;;5.23;;
53391;SDS011;41667;51.922;8.850;2023-06-22T11:20:05;7.20;;;5.27;;
53391;SDS011;41667;51.922;8.850;2023-06-22T11:22:35;5.88;;;5.30;;
53391;SDS011;41667;51.922;8.850;2023-06-22T11:25:00;5.97;;;5.37;;
53391;SDS011;41667;51.922;8.850;2023-06-22T11:27:25;8.73;;;5.80;;
53391;SDS011;41667;51.922;8.850;2023-06-22T11:29:50;6.07;;;5.13;;
53391;SDS011;41667;51.922;8.850;2023-06-22T11:32:18;7.10;;;6.05;;
53391;SDS011;41667;51.922;8.850;2023-06-22T11:34:43;6.27;;;5.67;;
53391;SDS011;41667;51.922;8.850;2023-06-22T11:37:08;8.68;;;5.22;;
53391;SDS011;41667;51.922;8.850;2023-06-22T11:39:33;5.82;;;5.22;;
53391;SDS011;41667;51.922;8.850;2023-06-22T11:41:58;6.38;;;5.43;;
53391;SDS011;41667;51.922;8.850;2023-06-22T11:44:23;6.10;;;5.50;;
53391;SDS011;41667;51.922;8.850;2023-06-22T11:46:49;6.80;;;5.82;;
53391;SDS011;41667;51.922;8.850;2023-06-22T11:49:14;10.27;;;5.47;;
53391;SDS011;41667;51.922;8.850;2023-06-22T11:51:39;6.65;;;5.60;;
53391;SDS011;41667;51.922;8.850;2023-06-22T11:54:04;6.78;;;5.82;;
53391;SDS011;41667;51.922;8.850;2023-06-22T11:56:29;6.30;;;5.70;;
53391;SDS011;41667;51.922;8.850;2023-06-22T11:58:54;7.03;;;6.32;;
53391;SDS011;41667;51.922;8.850;2023-06-22T12:01:20;7.50;;;6.30;;
53391;SDS011;41667;51.922;8.850;2023-06-22T12:03:46;7.53;;;6.40;;
53391;SDS011;41667;51.922;8.850;2023-06-22T12:06:11;6.97;;;5.90;;
53391;SDS011;41667;51.922;8.850;2023-06-22T12:08:36;6.45;;;5.85;;
53391;SDS011;41667;51.922;8.850;2023-06-22T12:11:02;8.55;;;6.43;;
53391;SDS011;41667;51.922;8.850;2023-06-22T12:13:27;10.18;;;6.28;;
53391;SDS011;41667;51.922;8.850;2023-06-22T12:15:52;7.10;;;6.40;;
53391;SDS011;41667;51.922;8.850;2023-06-22T12:18:17;7.23;;;6.23;;
53391;SDS011;41667;51.922;8.850;2023-06-22T12:20:45;11.23;;;6.60;;
53391;SDS011;41667;51.922;8.850;2023-06-22T12:23:10;7.55;;;6.47;;
53391;SDS011;41667;51.922;8.850;2023-06-22T12:25:35;7.60;;;6.18;;
53391;SDS011;41667;51.922;8.850;2023-06-22T12:28:00;6.93;;;6.13;;
53391;SDS011;41667;51.922;8.850;2023-06-22T12:30:26;8.10;;;6.40;;
53391;SDS011;41667;51.922;8.850;2023-06-22T12:32:51;6.90;;;5.90;;
53391;SDS011;41667;51.922;8.850;2023-06-22T12:35:16;7.93;;;6.30;;
53391;SDS011;41667;51.922;8.850;2023-06-22T12:37:41;7.87;;;7.03;;
53391;SDS011;41667;51.922;8.850;2023-06-22T12:40:07;6.93;;;6.22;;
53391;SDS011;41667;51.922;8.850;2023-06-22T12:42:32;6.93;;;5.75;;
53391;SDS011;41667;51.922;8.850;2023-06-22T12:44:57;9.07;;;7.55;;
53391;SDS011;41667;51.922;8.850;2023-06-22T12:47:22;9.60;;;6.82;;
53391;SDS011;41667;51.922;8.850;2023-06-22T12:49:48;6.13;;;5.50;;
53391;SDS011;41667;51.922;8.850;2023-06-22T12:52:13;8.95;;;6.43;;
53391;SDS011;41667;51.922;8.850;2023-06-22T12:54:38;8.77;;;7.03;;
53391;SDS011;41667;51.922;8.850;2023-06-22T12:57:03;8.55;;;6.53;;
53391;SDS011;41667;51.922;8.850;2023-06-22T12:59:28;8.25;;;6.28;;
53391;SDS011;41667;51.922;8.850;2023-06-22T13:01:53;12.18;;;7.05;;
53391;SDS011;41667;51.922;8.850;2023-06-22T13:04:19;11.90;;;7.80;;
53391;SDS011;41667;51.922;8.850;2023-06-22T13:06:44;9.95;;;7.32;;
53391;SDS011;41667;51.922;8.850;2023-06-22T13:09:12;12.35;;;7.38;;
53391;SDS011;41667;51.922;8.850;2023-06-22T13:11:37;14.23;;;9.15;;
53391;SDS011;41667;51.922;8.850;2023-06-22T13:14:02;11.57;;;9.03;;
53391;SDS011;41667;51.922;8.850;2023-06-22T13:16:28;11.67;;;9.03;;
53391;SDS011;41667;51.922;8.850;2023-06-22T13:18:53;11.07;;;9.48;;
53391;SDS011;41667;51.922;8.850;2023-06-22T13:21:18;10.48;;;8.93;;
53391;SDS011;41667;51.922;8.850;2023-06-22T13:23:43;11.30;;;9.10;;
53391;SDS011;41667;51.922;8.850;2023-06-22T13:26:08;13.93;;;9.02;;
53391;SDS011;41667;51.922;8.850;2023-06-22T13:28:33;11.80;;;9.30;;
53391;SDS011;41667;51.922;8.850;2023-06-22T13:30:58;12.07;;;10.02;;
53391;SDS011;41667;51.922;8.850;2023-06-22T13:33:24;12.40;;;9.87;;
53391;SDS011;41667;51.922;8.850;2023-06-22T13:35:49;14.93;;;10.63;;
53391;SDS011;41667;51.922;8.850;2023-06-22T13:38:14;12.65;;;9.70;;
53391;SDS011;41667;51.922;8.850;2023-06-22T13:40:39;15.43;;;9.67;;
53391;SDS011;41667;51.922;8.850;2023-06-22T13:43:05;15.48;;;10.85;;
53391;SDS011;41667;51.922;8.850;2023-06-22T13:45:30;14.52;;;10.80;;
53391;SDS011;41667;51.922;8.850;2023-06-22T13:47:55;13.18;;;9.88;;
53391;SDS011;41667;51.922;8.850;2023-06-22T13:50:20;13.40;;;10.48;;
53391;SDS011;41667;51.922;8.850;2023-06-22T13:52:45;16.85;;;12.43;;
53391;SDS011;41667;51.922;8.850;2023-06-22T13:55:10;15.75;;;11.50;;
53391;SDS011;41667;51.922;8.850;2023-06-22T13:57:36;15.63;;;11.25;;
53391;SDS011;41667;51.922;8.850;2023-06-22T14:00:03;15.50;;;11.85;;
53391;SDS011;41667;51.922;8.850;2023-06-22T14:02:30;16.15;;;11.73;;
53391;SDS011;41667;51.922;8.850;2023-06-22T14:04:55;14.10;;;10.88;;
53391;SDS011;41667;51.922;8.850;2023-06-22T14:07:20;14.73;;;11.15;;
53391;SDS011;41667;51.922;8.850;2023-06-22T14:09:46;19.40;;;12.75;;
53391;SDS011;41667;51.922;8.850;2023-06-22T14:12:11;14.60;;;11.57;;
53391;SDS011;41667;51.922;8.850;2023-06-22T14:14:36;14.50;;;11.55;;
53391;SDS011;41667;51.922;8.850;2023-06-22T14:17:02;16.65;;;12.25;;
53391;SDS011;41667;51.922;8.850;2023-06-22T14:19:28;16.13;;;12.10;;
53391;SDS011;41667;51.922;8.850;2023-06-22T14:21:53;12.90;;;10.53;;
53391;SDS011;41667;51.922;8.850;2023-06-22T14:24:18;14.02;;;11.35;;
53391;SDS011;41667;51.922;8.850;2023-06-22T14:26:43;15.07;;;11.77;;
53391;SDS011;41667;51.922;8.850;2023-06-22T14:29:08;15.90;;;12.00;;
53391;SDS011;41667;51.922;8.850;2023-06-22T14:31:33;15.85;;;11.77;;
53391;SDS011;41667;51.922;8.850;2023-06-22T14:34:00;20.53;;;13.03;;